Time;durP1;ratioP1;P1;durP2;ratioP2;P2;SDS_P1;SDS_P2;PMS_P1;PMS_P2;Temp;Humidity;BMP_temperature;BMP_pressure;BME280_temperature;BME280_humidity;BME280_pressure;Samples;Min_cycle;Max_cycle;Signal;HPM_P1;HPM_P2
2023/10/06 00:00:26;;;;;;;0.00;0.00;;;;;;;;;;4993658;28;20069;-85
2023/10/06 00:02:52;;;;;;;0.00;0.00;;;;;;;;;;4993719;28;20419;-86
2023/10/06 00:05:19;;;;;;;0.00;0.00;;;;;;;;;;4993376;28;20026;-85
2023/10/06 00:07:45;;;;;;;0.00;0.00;;;;;;;;;;4993328;28;20034;-86
2023/10/06 00:10:22;;;;;;;0.00;0.00;;;;;;;;;;4994406;28;20026;-86
2023/10/06 00:12:53;;;;;;;0.00;0.00;;;;;;;;;;4979070;28;20034;-86
2023/10/06 00:15:28;;;;;;;0.00;0.00;;;;;;;;;;4993272;28;20027;-86
2023/10/06 00:18:00;;;;;;;0.00;0.00;;;;;;;;;;4978204;28;20042;-86
2023/10/06 00:20:38;;;;;;;0.00;0.00;;;;;;;;;;4993261;28;20029;-85
2023/10/06 00:23:12;;;;;;;0.00;0.00;;;;;;;;;;4995235;28;20041;-85
2023/10/06 00:25:42;;;;;;;0.00;0.00;;;;;;;;;;4993653;28;20452;-85
2023/10/06 00:28:52;;;;;;;0.00;0.00;;;;;;;;;;4977912;28;20136;-86
2023/10/06 00:31:08;;;;;;;0.00;0.00;;;;;;;;;;4990468;28;20026;-85
2023/10/06 00:33:33;;;;;;;0.00;0.00;;;;;;;;;;4993292;28;20042;-85
2023/10/06 00:36:13;;;;;;;0.00;0.00;;;;;;;;;;4992987;28;20065;-85
2023/10/06 00:38:40;;;;;;;;;;;;;;;;;;4978673;28;20396;-84
2023/10/06 00:41:08;;;;;;;0.00;0.00;;;;;;;;;;4994128;28;20246;-85
2023/10/06 00:43:36;;;;;;;0.00;0.00;;;;;;;;;;4993575;28;20100;-86
2023/10/06 00:46:06;;;;;;;0.00;0.00;;;;;;;;;;4992703;28;20030;-86
2023/10/06 00:48:39;;;;;;;0.00;0.00;;;;;;;;;;4994013;28;20041;-85
2023/10/06 00:51:10;;;;;;;0.00;0.00;;;;;;;;;;4992930;28;20133;-85
2023/10/06 00:53:35;;;;;;;;;;;;;;;;;;4993305;28;20111;-85
2023/10/06 00:56:10;;;;;;;0.00;0.00;;;;;;;;;;4993330;28;20323;-85
2023/10/06 00:58:41;;;;;;;0.00;0.00;;;;;;;;;;4993045;28;20034;-85
2023/10/06 01:01:12;;;;;;;0.00;0.00;;;;;;;;;;4992954;28;20399;-86
2023/10/06 01:04:24;;;;;;;0.00;0.00;;;;;;;;;;4992928;28;20029;-86
2023/10/06 01:06:36;;;;;;;0.00;0.00;;;;;;;;;;4998356;28;20042;-86
2023/10/06 01:09:14;;;;;;;0.00;0.00;;;;;;;;;;4978451;28;20034;-86
2023/10/06 01:11:44;;;;;;;0.00;0.00;;;;;;;;;;4993954;28;20455;-85
2023/10/06 01:14:10;;;;;;;0.00;0.00;;;;;;;;;;4992828;28;20022;-86
2023/10/06 01:16:36;;;;;;;0.00;0.00;;;;;;;;;;4992969;28;20428;-85
2023/10/06 01:19:26;;;;;;;0.00;0.00;;;;;;;;;;4992971;28;20042;-85
2023/10/06 01:21:53;;;;;;;0.00;0.00;;;;;;;;;;4993203;28;20034;-85
2023/10/06 01:24:25;;;;;;;0.00;0.00;;;;;;;;;;4992910;28;20026;-86
2023/10/06 01:26:59;;;;;;;0.00;0.00;;;;;;;;;;4978444;28;20031;-85
2023/10/06 01:29:29;;;;;;;0.00;0.00;;;;;;;;;;4976551;28;20026;-85
2023/10/06 01:31:55;;;;;;;0.00;0.00;;;;;;;;;;4995179;28;20030;-86
2023/10/06 01:34:21;;;;;;;0.00;0.00;;;;;;;;;;4964052;28;20282;-86
2023/10/06 01:36:52;;;;;;;0.00;0.00;;;;;;;;;;4979852;28;20460;-85
2023/10/06 01:39:22;;;;;;;0.00;0.00;;;;;;;;;;4965167;28;20092;-85
2023/10/06 01:41:48;;;;;;;0.00;0.00;;;;;;;;;;4965239;28;20031;-85
2023/10/06 01:44:15;;;;;;;0.00;0.00;;;;;;;;;;4963383;28;20033;-86
2023/10/06 01:46:42;;;;;;;0.00;0.00;;;;;;;;;;4949148;28;20065;-85
2023/10/06 01:49:10;;;;;;;0.00;0.00;;;;;;;;;;4963727;28;20034;-84
2023/10/06 01:51:39;;;;;;;0.00;0.00;;;;;;;;;;4964197;28;20038;-85
2023/10/06 01:54:12;;;;;;;0.00;0.00;;;;;;;;;;4963414;28;20026;-85
2023/10/06 01:56:42;;;;;;;0.00;0.00;;;;;;;;;;4948185;28;20034;-85
2023/10/06 01:59:16;;;;;;;0.00;0.00;;;;;;;;;;4947851;28;20092;-86
2023/10/06 02:01:42;;;;;;;0.00;0.00;;;;;;;;;;4947504;28;20901;-86
2023/10/06 02:04:11;;;;;;;0.00;0.00;;;;;;;;;;4947402;28;20105;-86
2023/10/06 02:06:48;;;;;;;0.00;0.00;;;;;;;;;;4949136;28;20065;-85
2023/10/06 02:09:18;;;;;;;0.00;0.00;;;;;;;;;;4965498;28;20052;-86
2023/10/06 02:11:44;;;;;;;0.00;0.00;;;;;;;;;;4963898;28;20026;-85
2023/10/06 02:14:18;;;;;;;0.00;0.00;;;;;;;;;;4996403;28;20435;-86
2023/10/06 02:16:44;;;;;;;0.00;0.00;;;;;;;;;;4948575;28;20034;-85
2023/10/06 02:19:15;;;;;;;0.00;0.00;;;;;;;;;;4947187;28;20133;-85
2023/10/06 02:21:45;;;;;;;0.00;0.00;;;;;;;;;;4964328;28;20031;-85
2023/10/06 02:24:12;;;;;;;0.00;0.00;;;;;;;;;;4963817;28;20037;-86
2023/10/06 02:26:38;;;;;;;0.00;0.00;;;;;;;;;;4979531;28;20030;-85
2023/10/06 02:29:22;;;;;;;0.00;0.00;;;;;;;;;;4995024;28;20038;-86
2023/10/06 02:31:51;;;;;;;0.00;0.00;;;;;;;;;;4965521;28;20098;-85
2023/10/06 02:34:29;;;;;;;0.00;0.00;;;;;;;;;;4963082;28;20027;-85
2023/10/06 02:36:57;;;;;;;0.00;0.00;;;;;;;;;;4950440;28;20037;-85
2023/10/06 02:39:26;;;;;;;0.00;0.00;;;;;;;;;;4962910;28;20030;-86
2023/10/06 02:41:57;;;;;;;0.00;0.00;;;;;;;;;;4947465;28;20037;-85
2023/10/06 02:44:23;;;;;;;0.00;0.00;;;;;;;;;;4980087;28;20291;-86
2023/10/06 02:46:53;;;;;;;0.00;0.00;;;;;;;;;;4946552;28;20376;-86
2023/10/06 02:49:35;;;;;;;0.00;0.00;;;;;;;;;;4962256;28;20041;-85
2023/10/06 02:52:16;;;;;;;0.00;0.00;;;;;;;;;;4950924;28;20034;-86
2023/10/06 02:54:47;;;;;;;0.00;0.00;;;;;;;;;;4965191;28;20117;-85
2023/10/06 02:57:13;;;;;;;0.20;0.00;;;;;;;;;;4964013;28;20440;-85
2023/10/06 02:59:38;;;;;;;0.00;0.00;;;;;;;;;;4946494;28;20050;-85
2023/10/06 03:02:15;;;;;;;0.00;0.00;;;;;;;;;;4946589;28;20411;-85
2023/10/06 03:04:48;;;;;;;0.00;0.00;;;;;;;;;;4966554;28;20452;-86
2023/10/06 03:07:15;;;;;;;0.00;0.00;;;;;;;;;;4979101;28;20470;-85
2023/10/06 03:09:46;;;;;;;0.00;0.00;;;;;;;;;;4978071;28;20022;-85
2023/10/06 03:14:59;;;;;;;0.00;0.00;;;;;;;;;;4965359;28;20109;-85
2023/10/06 03:17:24;;;;;;;0.00;0.00;;;;;;;;;;4978915;28;20451;-85
2023/10/06 03:20:18;;;;;;;0.00;0.00;;;;;;;;;;4977952;28;20108;-86
2023/10/06 03:22:48;;;;;;;0.00;0.00;;;;;;;;;;4966714;28;20034;-85
2023/10/06 03:25:15;;;;;;;0.30;0.00;;;;;;;;;;4978693;28;20098;-85
2023/10/06 03:27:41;;;;;;;0.00;0.00;;;;;;;;;;4995232;28;20062;-84
2023/10/06 03:30:27;;;;;;;0.00;0.00;;;;;;;;;;4961753;28;20038;-86
2023/10/06 03:32:58;;;;;;;0.00;0.00;;;;;;;;;;4972270;28;20046;-86
2023/10/06 03:35:47;;;;;;;0.00;0.00;;;;;;;;;;4994187;28;20034;-85
2023/10/06 03:40:46;;;;;;;0.00;0.00;;;;;;;;;;4997841;28;20088;-84
2023/10/06 03:43:14;;;;;;;0.00;0.00;;;;;;;;;;4999220;28;20372;-85
2023/10/06 03:45:41;;;;;;;0.00;0.00;;;;;;;;;;4982574;28;20096;-84
2023/10/06 03:48:13;;;;;;;0.00;0.00;;;;;;;;;;4994918;28;20034;-85
2023/10/06 03:50:39;;;;;;;0.00;0.00;;;;;;;;;;4978451;28;20030;-85
2023/10/06 03:53:09;;;;;;;0.00;0.00;;;;;;;;;;4976575;28;20034;-85
2023/10/06 03:55:40;;;;;;;0.00;0.00;;;;;;;;;;4994310;28;20104;-85
2023/10/06 03:58:10;;;;;;;0.00;0.00;;;;;;;;;;4977647;28;20120;-85
2023/10/06 04:00:40;;;;;;;0.00;0.00;;;;;;;;;;4994127;28;20034;-85
2023/10/06 04:03:13;;;;;;;0.00;0.00;;;;;;;;;;4978935;28;20030;-86
2023/10/06 04:05:44;;;;;;;0.00;0.00;;;;;;;;;;4993428;28;20372;-85
2023/10/06 04:08:15;;;;;;;0.00;0.00;;;;;;;;;;4993212;28;20108;-85
2023/10/06 04:10:42;;;;;;;0.00;0.00;;;;;;;;;;4993549;28;20027;-85
2023/10/06 04:13:11;;;;;;;0.00;0.00;;;;;;;;;;4977214;28;20037;-85
2023/10/06 04:15:48;;;;;;;0.00;0.00;;;;;;;;;;4993234;28;20419;-86
2023/10/06 04:18:16;;;;;;;0.00;0.00;;;;;;;;;;4993465;28;20036;-85
2023/10/06 04:20:42;;;;;;;0.00;0.00;;;;;;;;;;4993592;28;20560;-86
2023/10/06 04:23:11;;;;;;;0.00;0.00;;;;;;;;;;4993967;28;20023;-86
2023/10/06 04:25:37;;;;;;;0.00;0.00;;;;;;;;;;4977271;28;20069;-79
2023/10/06 04:28:09;;;;;;;0.00;0.00;;;;;;;;;;4992868;28;20046;-77
2023/10/06 04:30:35;;;;;;;0.00;0.00;;;;;;;;;;4993568;28;20088;-77
2023/10/06 04:33:03;;;;;;;0.00;0.00;;;;;;;;;;4992654;28;20084;-77
2023/10/06 04:35:32;;;;;;;0.00;0.00;;;;;;;;;;4992925;28;20433;-77
2023/10/06 04:38:10;;;;;;;0.00;0.00;;;;;;;;;;4987400;28;20034;-77
2023/10/06 04:40:40;;;;;;;0.00;0.00;;;;;;;;;;4975626;28;20034;-77
2023/10/06 04:43:06;;;;;;;0.00;0.00;;;;;;;;;;4971892;28;20034;-77
2023/10/06 04:45:32;;;;;;;0.00;0.00;;;;;;;;;;4972323;28;20039;-77
2023/10/06 04:48:00;;;;;;;0.00;0.00;;;;;;;;;;4983966;28;20113;-76
2023/10/06 04:50:28;;;;;;;0.00;0.00;;;;;;;;;;4972840;28;20030;-77
2023/10/06 04:52:54;;;;;;;0.00;0.00;;;;;;;;;;4989626;28;20054;-78
2023/10/06 04:55:20;;;;;;;0.00;0.00;;;;;;;;;;4989178;28;20325;-77
2023/10/06 04:57:46;;;;;;;0.00;0.00;;;;;;;;;;4995330;28;20125;-78
2023/10/06 05:00:33;;;;;;;0.00;0.00;;;;;;;;;;5005609;28;20096;-77
2023/10/06 05:03:25;;;;;;;0.00;0.00;;;;;;;;;;4996945;28;20034;-77
2023/10/06 05:05:50;;;;;;;0.00;0.00;;;;;;;;;;4993084;28;20030;-77
2023/10/06 05:08:16;;;;;;;0.00;0.00;;;;;;;;;;4993980;28;20515;-74
2023/10/06 05:10:41;;;;;;;0.00;0.00;;;;;;;;;;4991407;28;20034;-77
2023/10/06 05:13:10;;;;;;;0.00;0.00;;;;;;;;;;4985762;28;20026;-76
2023/10/06 05:15:36;;;;;;;0.00;0.00;;;;;;;;;;5003693;28;20022;-76
2023/10/06 05:18:03;;;;;;;0.00;0.00;;;;;;;;;;4966646;28;20039;-76
2023/10/06 05:20:30;;;;;;;0.00;0.00;;;;;;;;;;4997171;28;20026;-76
2023/10/06 05:22:58;;;;;;;0.00;0.00;;;;;;;;;;4988927;28;20081;-78
2023/10/06 05:25:26;;;;;;;0.00;0.00;;;;;;;;;;4994835;28;20039;-76
2023/10/06 05:27:53;;;;;;;0.00;0.00;;;;;;;;;;4981324;28;20111;-77
2023/10/06 05:30:21;;;;;;;0.00;0.00;;;;;;;;;;4980960;28;20054;-79
2023/10/06 05:32:47;;;;;;;0.00;0.00;;;;;;;;;;4977750;28;20055;-75
2023/10/06 05:35:16;;;;;;;0.10;0.00;;;;;;;;;;4978856;28;20038;-76
2023/10/06 05:37:45;;;;;;;0.00;0.00;;;;;;;;;;4983468;28;20353;-77
2023/10/06 05:40:20;;;;;;;0.52;0.20;;;;;;;;;;4966736;28;20066;-77
2023/10/06 05:42:49;;;;;;;0.52;0.10;;;;;;;;;;4966232;28;20463;-77
2023/10/06 05:45:15;;;;;;;0.00;0.00;;;;;;;;;;4985776;28;20023;-77
2023/10/06 05:47:48;;;;;;;0.00;0.00;;;;;;;;;;4986325;28;20050;-77
2023/10/06 05:50:27;;;;;;;0.10;0.05;;;;;;;;;;4996040;28;20037;-76
2023/10/06 05:53:03;;;;;;;0.35;0.00;;;;;;;;;;4996739;28;20420;-78
2023/10/06 05:55:37;;;;;;;0.00;0.00;;;;;;;;;;4997750;28;20026;-77
2023/10/06 05:58:04;;;;;;;0.00;0.00;;;;;;;;;;4993601;28;20034;-78
2023/10/06 06:00:35;;;;;;;0.00;0.00;;;;;;;;;;4991110;28;20418;-77
2023/10/06 06:03:10;;;;;;;0.00;0.00;;;;;;;;;;4996215;28;20038;-77
2023/10/06 06:05:42;;;;;;;0.00;0.00;;;;;;;;;;5018115;28;20034;-80
2023/10/06 06:12:00;;;;;;;0.22;0.00;;;;;;;;;;4963642;28;20050;-77
2023/10/06 06:14:25;;;;;;;0.00;0.00;;;;;;;;;;4965937;28;20037;-75
2023/10/06 06:16:52;;;;;;;0.00;0.00;;;;;;;;;;4977951;28;20125;-77
2023/10/06 06:19:18;;;;;;;0.00;0.00;;;;;;;;;;5002608;23;20073;-77
2023/10/06 06:21:45;;;;;;;0.00;0.00;;;;;;;;;;5020198;28;20038;-76
2023/10/06 06:24:10;;;;;;;0.00;0.00;;;;;;;;;;5001343;28;20030;-79
2023/10/06 06:26:36;;;;;;;0.00;0.00;;;;;;;;;;4990328;28;20175;-78
2023/10/06 06:29:05;;;;;;;0.00;0.00;;;;;;;;;;5036233;28;20447;-79
2023/10/06 06:31:37;;;;;;;0.00;0.00;;;;;;;;;;4991466;28;20033;-77
2023/10/06 06:34:05;;;;;;;0.00;0.00;;;;;;;;;;5020898;28;20289;-75
2023/10/06 06:36:31;;;;;;;0.00;0.00;;;;;;;;;;5022600;28;20064;-78
2023/10/06 06:38:58;;;;;;;0.00;0.00;;;;;;;;;;4991031;28;20040;-77
2023/10/06 06:41:24;;;;;;;0.00;0.00;;;;;;;;;;5003783;28;20041;-76
2023/10/06 06:43:55;;;;;;;0.00;0.00;;;;;;;;;;5003332;28;20074;-78
2023/10/06 06:46:21;;;;;;;0.00;0.00;;;;;;;;;;5015863;28;20061;-76
2023/10/06 06:48:46;;;;;;;0.00;0.00;;;;;;;;;;5016796;28;20072;-77
2023/10/06 06:51:13;;;;;;;0.00;0.00;;;;;;;;;;5018792;28;20038;-77
2023/10/06 06:53:39;;;;;;;0.00;0.00;;;;;;;;;;5020567;28;20028;-78
2023/10/06 06:56:06;;;;;;;0.00;0.00;;;;;;;;;;5023474;28;20021;-76
2023/10/06 06:58:32;;;;;;;0.00;0.00;;;;;;;;;;5007005;28;20038;-77
2023/10/06 07:00:58;;;;;;;0.00;0.00;;;;;;;;;;5019908;28;20029;-77
2023/10/06 07:03:24;;;;;;;0.00;0.00;;;;;;;;;;5017471;28;20026;-76
2023/10/06 07:05:51;;;;;;;0.00;0.00;;;;;;;;;;5016393;28;20018;-76
2023/10/06 07:08:20;;;;;;;0.00;0.00;;;;;;;;;;5014930;28;20604;-76
2023/10/06 07:10:52;;;;;;;0.00;0.00;;;;;;;;;;5000789;28;20036;-76
2023/10/06 07:13:22;;;;;;;0.00;0.00;;;;;;;;;;4999212;28;20079;-78
2023/10/06 07:15:49;;;;;;;0.00;0.00;;;;;;;;;;5017811;28;20083;-78
2023/10/06 07:18:23;;;;;;;0.00;0.00;;;;;;;;;;4988656;28;20068;-78
2023/10/06 07:20:54;;;;;;;0.00;0.00;;;;;;;;;;5001621;28;20441;-77
2023/10/06 07:23:20;;;;;;;0.00;0.00;;;;;;;;;;5003172;28;20085;-76
2023/10/06 07:25:45;;;;;;;0.00;0.00;;;;;;;;;;5018426;28;20049;-76
2023/10/06 07:28:12;;;;;;;0.00;0.00;;;;;;;;;;5017529;28;20026;-76
2023/10/06 07:30:37;;;;;;;0.00;0.00;;;;;;;;;;5017288;28;20028;-76
2023/10/06 07:33:03;;;;;;;0.00;0.00;;;;;;;;;;4999829;28;20022;-77
2023/10/06 07:35:51;;;;;;;0.00;0.00;;;;;;;;;;5015570;28;20128;-77
2023/10/06 07:38:18;;;;;;;0.00;0.00;;;;;;;;;;5015343;28;20137;-76
2023/10/06 07:40:43;;;;;;;0.00;0.00;;;;;;;;;;4997538;28;20022;-74
2023/10/06 07:43:10;;;;;;;0.00;0.00;;;;;;;;;;5013701;28;20025;-77
2023/10/06 07:45:36;;;;;;;0.00;0.00;;;;;;;;;;5012871;28;20545;-77
2023/10/06 07:48:05;;;;;;;0.05;0.00;;;;;;;;;;5011414;28;20141;-76
2023/10/06 07:50:33;;;;;;;0.00;0.00;;;;;;;;;;4997734;28;20032;-76
2023/10/06 07:52:58;;;;;;;0.00;0.00;;;;;;;;;;4981059;28;20291;-78
2023/10/06 07:55:24;;;;;;;0.00;0.00;;;;;;;;;;4996605;28;20030;-76
2023/10/06 07:57:50;;;;;;;0.00;0.00;;;;;;;;;;4979886;28;20090;-75
2023/10/06 08:00:18;;;;;;;0.00;0.00;;;;;;;;;;4993301;28;20033;-76
2023/10/06 08:02:45;;;;;;;0.00;0.00;;;;;;;;;;5007649;28;20036;-77
2023/10/06 08:05:20;;;;;;;0.00;0.00;;;;;;;;;;4985253;28;20034;-77
2023/10/06 08:07:46;;;;;;;0.00;0.00;;;;;;;;;;4978752;28;20038;-77
2023/10/06 08:10:16;;;;;;;0.00;0.00;;;;;;;;;;4995310;28;20346;-76
2023/10/06 08:12:43;;;;;;;;;;;;;;;;;;4993897;28;20030;-78
2023/10/06 08:15:09;;;;;;;0.00;0.00;;;;;;;;;;4995327;28;20495;-76
2023/10/06 08:17:38;;;;;;;0.00;0.00;;;;;;;;;;4974820;28;20365;-75
2023/10/06 08:20:09;;;;;;;0.00;0.00;;;;;;;;;;4992318;28;20054;-75
2023/10/06 08:22:36;;;;;;;0.00;0.00;;;;;;;;;;4992206;28;20490;-76
2023/10/06 08:25:05;;;;;;;0.00;0.00;;;;;;;;;;5009554;28;20104;-75
2023/10/06 08:27:35;;;;;;;0.00;0.00;;;;;;;;;;5010385;28;20025;-75
2023/10/06 08:30:01;;;;;;;;;;;;;;;;;;5012992;28;20026;-74
2023/10/06 08:32:26;;;;;;;0.00;0.00;;;;;;;;;;5011665;28;19975;-73
2023/10/06 08:34:53;;;;;;;0.00;0.00;;;;;;;;;;5015974;28;20017;-75
2023/10/06 08:37:19;;;;;;;0.00;0.00;;;;;;;;;;5014408;28;20033;-76
2023/10/06 08:39:46;;;;;;;0.00;0.00;;;;;;;;;;5016814;28;20026;-75
2023/10/06 08:42:12;;;;;;;0.00;0.00;;;;;;;;;;5019289;28;20038;-75
2023/10/06 08:44:40;;;;;;;0.00;0.00;;;;;;;;;;5018685;28;20026;-75
2023/10/06 08:47:09;;;;;;;0.00;0.00;;;;;;;;;;5021356;28;20029;-76
2023/10/06 08:49:38;;;;;;;0.00;0.00;;;;;;;;;;5001854;28;20688;-78
2023/10/06 08:52:04;;;;;;;0.03;0.00;;;;;;;;;;5018690;28;20033;-78
2023/10/06 08:54:30;;;;;;;0.00;0.00;;;;;;;;;;5003982;28;20034;-77
2023/10/06 08:56:56;;;;;;;0.00;0.00;;;;;;;;;;4987522;28;20061;-80
2023/10/06 08:59:22;;;;;;;0.00;0.00;;;;;;;;;;5004322;28;20033;-76
2023/10/06 09:01:49;;;;;;;0.00;0.00;;;;;;;;;;5004081;28;20368;-78
2023/10/06 09:04:15;;;;;;;0.00;0.00;;;;;;;;;;5023180;28;20037;-77
2023/10/06 09:07:08;;;;;;;0.00;0.00;;;;;;;;;;5020422;28;20026;-76
2023/10/06 09:09:34;;;;;;;0.00;0.00;;;;;;;;;;5020425;28;20041;-76
2023/10/06 09:11:59;;;;;;;0.00;0.00;;;;;;;;;;5000727;28;20025;-76
2023/10/06 09:14:28;;;;;;;0.00;0.00;;;;;;;;;;5016635;28;20410;-75
2023/10/06 09:16:54;;;;;;;0.00;0.00;;;;;;;;;;5021135;28;20026;-75
2023/10/06 09:19:20;;;;;;;0.00;0.00;;;;;;;;;;5026224;28;20076;-77
2023/10/06 09:22:00;;;;;;;0.00;0.00;;;;;;;;;;5037680;28;20037;-77
2023/10/06 09:24:27;;;;;;;0.00;0.00;;;;;;;;;;5039342;28;20512;-73
2023/10/06 09:26:55;;;;;;;0.00;0.00;;;;;;;;;;5037185;28;20025;-74
2023/10/06 09:29:32;;;;;;;0.00;0.00;;;;;;;;;;5031488;28;20025;-74
2023/10/06 09:31:58;;;;;;;0.00;0.00;;;;;;;;;;5037078;28;20025;-74
2023/10/06 09:34:24;;;;;;;0.00;0.00;;;;;;;;;;5041371;28;20033;-75
2023/10/06 09:36:50;;;;;;;0.00;0.00;;;;;;;;;;5042968;28;20030;-76
2023/10/06 09:39:32;;;;;;;0.00;0.00;;;;;;;;;;5024927;28;20391;-75
2023/10/06 09:41:59;;;;;;;0.00;0.00;;;;;;;;;;5025418;28;20036;-78
2023/10/06 09:44:24;;;;;;;0.00;0.00;;;;;;;;;;5022572;28;20026;-77
2023/10/06 09:46:52;;;;;;;0.00;0.00;;;;;;;;;;5057726;28;20057;-77
2023/10/06 09:49:18;;;;;;;0.00;0.00;;;;;;;;;;5023766;28;20025;-77
2023/10/06 09:51:46;;;;;;;0.00;0.00;;;;;;;;;;5040431;28;20032;-78
2023/10/06 09:54:12;;;;;;;0.00;0.00;;;;;;;;;;5046666;28;20473;-78
2023/10/06 09:56:40;;;;;;;0.00;0.00;;;;;;;;;;5032237;28;20097;-76
2023/10/06 09:59:07;;;;;;;0.00;0.00;;;;;;;;;;5021452;28;20029;-76
2023/10/06 10:13:21;;;;;;;0.10;0.00;;;;;;;;;;5254296;22;20052;-76
2023/10/06 10:16:32;;;;;;;0.00;0.00;;;;;;;;;;5051364;28;20048;-77
2023/10/06 10:18:58;;;;;;;0.00;0.00;;;;;;;;;;5045602;28;20048;-78
2023/10/06 10:21:27;;;;;;;0.00;0.00;;;;;;;;;;5029572;28;20037;-78
2023/10/06 10:24:34;;;;;;;0.00;0.00;;;;;;;;;;5037841;28;20040;-79
2023/10/06 10:33:35;;;;;;;0.00;0.00;;;;;;;;;;5095166;22;20064;-77
2023/10/06 10:36:33;;;;;;;0.00;0.00;;;;;;;;;;5071139;28;20048;-77
2023/10/06 10:39:14;;;;;;;0.00;0.00;;;;;;;;;;5077639;28;20520;-75
2023/10/06 10:41:40;;;;;;;0.00;0.00;;;;;;;;;;5073323;28;20479;-77
2023/10/06 10:44:07;;;;;;;0.00;0.00;;;;;;;;;;5078166;28;20032;-76
2023/10/06 10:46:44;;;;;;;0.00;0.00;;;;;;;;;;5083820;28;20122;-79
2023/10/06 10:49:13;;;;;;;0.00;0.00;;;;;;;;;;5087191;28;20035;-79
2023/10/06 10:52:16;;;;;;;0.00;0.00;;;;;;;;;;5071009;28;20025;-79
2023/10/06 10:54:44;;;;;;;0.00;0.00;;;;;;;;;;5022468;28;20037;-76
2023/10/06 10:57:32;;;;;;;0.00;0.00;;;;;;;;;;5081346;28;20031;-77
2023/10/06 11:00:12;;;;;;;0.00;0.00;;;;;;;;;;5074949;28;20735;-76
2023/10/06 11:02:49;;;;;;;0.00;0.00;;;;;;;;;;5082070;28;20131;-76
2023/10/06 11:05:18;;;;;;;0.00;0.00;;;;;;;;;;5087364;28;20025;-76
2023/10/06 11:08:35;;;;;;;;;;;;;;;;;;;;;
2023/10/06 11:11:34;;;;;;;0.00;0.00;;;;;;;;;;5089465;28;20279;-77
2023/10/06 11:14:16;;;;;;;0.00;0.00;;;;;;;;;;5088951;28;20056;-79
2023/10/06 11:16:46;;;;;;;0.00;0.00;;;;;;;;;;5073620;28;20044;-77
2023/10/06 11:19:15;;;;;;;;;;;;;;;;;;5061687;28;20122;-77
2023/10/06 11:21:48;;;;;;;0.00;0.00;;;;;;;;;;5060736;28;19908;-77
2023/10/06 11:24:25;;;;;;;0.00;0.00;;;;;;;;;;5051666;28;20025;-77
2023/10/06 11:26:51;;;;;;;0.00;0.00;;;;;;;;;;5066616;28;20119;-79
2023/10/06 11:29:32;;;;;;;0.00;0.00;;;;;;;;;;5081405;28;20029;-78
2023/10/06 11:32:01;;;;;;;0.00;0.00;;;;;;;;;;5061772;28;20074;-77
2023/10/06 11:34:27;;;;;;;0.00;0.00;;;;;;;;;;5061380;28;20040;-77
2023/10/06 11:36:56;;;;;;;0.00;0.00;;;;;;;;;;5090321;28;20039;-77
2023/10/06 11:39:23;;;;;;;0.00;0.00;;;;;;;;;;5070687;28;20024;-77
2023/10/06 11:41:51;;;;;;;0.00;0.00;;;;;;;;;;5079647;28;20100;-78
2023/10/06 11:44:16;;;;;;;0.00;0.00;;;;;;;;;;5065585;28;20028;-77
2023/10/06 11:46:52;;;;;;;0.00;0.00;;;;;;;;;;5057839;28;20048;-76
2023/10/06 11:49:20;;;;;;;0.00;0.00;;;;;;;;;;5054576;28;20366;-77
2023/10/06 11:51:46;;;;;;;0.00;0.00;;;;;;;;;;5078182;28;20532;-76
2023/10/06 11:54:11;;;;;;;0.00;0.00;;;;;;;;;;5043066;28;20056;-75
2023/10/06 11:56:52;;;;;;;0.10;0.00;;;;;;;;;;5080157;28;20084;-83
2023/10/06 11:59:22;;;;;;;0.10;0.00;;;;;;;;;;5076641;28;20035;-82
2023/10/06 12:01:51;;;;;;;0.00;0.00;;;;;;;;;;5073073;28;20035;-82
2023/10/06 12:04:30;;;;;;;0.00;0.00;;;;;;;;;;5050563;28;20020;-83
2023/10/06 12:06:57;;;;;;;0.00;0.00;;;;;;;;;;5050528;28;20027;-86
2023/10/06 12:09:24;;;;;;;0.00;0.00;;;;;;;;;;5075468;28;20032;-74
2023/10/06 12:11:50;;;;;;;0.00;0.00;;;;;;;;;;5074078;28;20029;-74
2023/10/06 12:14:15;;;;;;;0.00;0.00;;;;;;;;;;5074162;28;20028;-75
2023/10/06 12:16:44;;;;;;;0.00;0.00;;;;;;;;;;5075383;28;20473;-75
2023/10/06 12:19:11;;;;;;;0.00;0.00;;;;;;;;;;5075750;28;20149;-75
2023/10/06 12:21:37;;;;;;;0.00;0.00;;;;;;;;;;5074326;28;20035;-75
2023/10/06 12:24:03;;;;;;;0.00;0.00;;;;;;;;;;5077009;28;20032;-74
2023/10/06 12:26:32;;;;;;;0.00;0.00;;;;;;;;;;5076477;28;20108;-76
2023/10/06 12:28:58;;;;;;;0.00;0.00;;;;;;;;;;5058991;28;20376;-75
2023/10/06 12:31:24;;;;;;;0.00;0.00;;;;;;;;;;5077908;28;20635;-75
2023/10/06 12:33:55;;;;;;;0.00;0.00;;;;;;;;;;5059919;28;20054;-74
2023/10/06 12:36:21;;;;;;;0.00;0.00;;;;;;;;;;5074772;28;20035;-76
2023/10/06 12:38:47;;;;;;;0.00;0.00;;;;;;;;;;5059600;28;20377;-76
2023/10/06 12:41:12;;;;;;;0.00;0.00;;;;;;;;;;5059630;28;20024;-75
2023/10/06 12:43:38;;;;;;;0.00;0.00;;;;;;;;;;5077503;28;20024;-74
2023/10/06 12:46:04;;;;;;;0.00;0.00;;;;;;;;;;5077029;28;20177;-76
2023/10/06 12:48:38;;;;;;;0.00;0.00;;;;;;;;;;5060564;28;20032;-75
2023/10/06 12:51:05;;;;;;;0.00;0.00;;;;;;;;;;5060285;28;20036;-76
2023/10/06 12:53:33;;;;;;;0.00;0.00;;;;;;;;;;5040717;28;20472;-76
2023/10/06 12:55:59;;;;;;;0.00;0.00;;;;;;;;;;5039466;28;20123;-77
2023/10/06 12:58:24;;;;;;;0.00;0.00;;;;;;;;;;5072455;28;20063;-76
2023/10/06 13:00:50;;;;;;;0.00;0.00;;;;;;;;;;5072374;28;20020;-76
2023/10/06 13:03:15;;;;;;;0.00;0.00;;;;;;;;;;5072969;28;20423;-76
2023/10/06 13:05:43;;;;;;;0.00;0.00;;;;;;;;;;5071563;28;20055;-76
2023/10/06 13:08:09;;;;;;;0.00;0.00;;;;;;;;;;5071681;28;20043;-76
2023/10/06 13:10:35;;;;;;;0.00;0.00;;;;;;;;;;5038911;28;20403;-76
2023/10/06 13:13:06;;;;;;;0.00;0.00;;;;;;;;;;5072035;28;20032;-76
2023/10/06 13:15:31;;;;;;;0.00;0.00;;;;;;;;;;5073270;28;20029;-76
2023/10/06 13:17:57;;;;;;;0.00;0.00;;;;;;;;;;5055103;28;20389;-76
2023/10/06 13:21:06;;;;;;;0.00;0.00;;;;;;;;;;5071704;28;20080;-87
2023/10/06 13:23:26;;;;;;;0.00;0.00;;;;;;;;;;5056686;28;20029;-85
2023/10/06 13:25:53;;;;;;;0.00;0.00;;;;;;;;;;5055875;28;20119;-82
2023/10/06 13:28:18;;;;;;;0.00;0.00;;;;;;;;;;5076238;28;20189;-84
2023/10/06 13:30:44;;;;;;;0.00;0.00;;;;;;;;;;5075541;28;20025;-81
2023/10/06 13:33:10;;;;;;;0.00;0.00;;;;;;;;;;5058261;28;20115;-82
2023/10/06 13:35:36;;;;;;;0.00;0.00;;;;;;;;;;5042203;28;20028;-83
2023/10/06 13:38:02;;;;;;;0.00;0.00;;;;;;;;;;5075216;28;20036;-83
2023/10/06 13:40:29;;;;;;;0.00;0.00;;;;;;;;;;5055052;28;20021;-83
2023/10/06 13:42:54;;;;;;;0.00;0.00;;;;;;;;;;5075191;28;20032;-82
2023/10/06 13:45:25;;;;;;;0.00;0.00;;;;;;;;;;5058213;28;20025;-82
2023/10/06 13:47:54;;;;;;;0.00;0.00;;;;;;;;;;5074510;28;20159;-82
2023/10/06 13:50:24;;;;;;;0.00;0.00;;;;;;;;;;5075006;28;20032;-82
2023/10/06 13:52:49;;;;;;;0.00;0.00;;;;;;;;;;5058298;28;20036;-82
2023/10/06 13:55:16;;;;;;;0.00;0.00;;;;;;;;;;5074719;28;20029;-81
2023/10/06 13:57:42;;;;;;;0.00;0.00;;;;;;;;;;5058511;28;20020;-83
2023/10/06 14:00:11;;;;;;;0.00;0.00;;;;;;;;;;5057801;28;20024;-84
2023/10/06 14:02:37;;;;;;;0.00;0.00;;;;;;;;;;5057992;28;20025;-82
2023/10/06 14:05:03;;;;;;;0.00;0.00;;;;;;;;;;5041577;28;20416;-82
2023/10/06 14:07:30;;;;;;;0.00;0.00;;;;;;;;;;5074832;28;20032;-83
2023/10/06 14:09:57;;;;;;;0.00;0.00;;;;;;;;;;5074601;28;20443;-82
2023/10/06 14:12:26;;;;;;;0.00;0.00;;;;;;;;;;5058700;28;20024;-83
2023/10/06 14:17:19;;;;;;;0.00;0.00;;;;;;;;;;5076016;28;20039;-82
2023/10/06 14:19:48;;;;;;;0.00;0.00;;;;;;;;;;5074834;28;20033;-82
2023/10/06 14:22:15;;;;;;;0.00;0.00;;;;;;;;;;5058359;28;20025;-84
2023/10/06 14:24:41;;;;;;;0.00;0.00;;;;;;;;;;5074835;28;20029;-82
2023/10/06 14:27:07;;;;;;;0.00;0.00;;;;;;;;;;5077527;28;20085;-82
2023/10/06 14:29:33;;;;;;;0.00;0.00;;;;;;;;;;5074894;28;20033;-83
2023/10/06 14:32:09;;;;;;;0.00;0.00;;;;;;;;;;5074551;28;20031;-83
2023/10/06 14:34:56;;;;;;;0.00;0.00;;;;;;;;;;5075491;28;20193;-83
2023/10/06 14:37:38;;;;;;;0.15;0.00;;;;;;;;;;5077626;28;20129;-82
2023/10/06 14:48:18;;;;;;;0.00;0.00;;;;;;;;;;5074164;28;20079;-84
2023/10/06 14:50:45;;;;;;;0.00;0.00;;;;;;;;;;5075105;28;20378;-82
2023/10/06 14:53:11;;;;;;;0.00;0.00;;;;;;;;;;5074542;28;20400;-83
2023/10/06 14:55:38;;;;;;;0.00;0.00;;;;;;;;;;5074935;28;20029;-84
2023/10/06 14:58:04;;;;;;;0.00;0.00;;;;;;;;;;5073762;28;20359;-83
2023/10/06 15:00:32;;;;;;;0.00;0.00;;;;;;;;;;5073583;28;20029;-84
2023/10/06 15:03:02;;;;;;;0.00;0.00;;;;;;;;;;5074947;28;20139;-83
2023/10/06 15:05:36;;;;;;;0.00;0.00;;;;;;;;;;5057305;28;20457;-83
2023/10/06 15:08:03;;;;;;;0.00;0.00;;;;;;;;;;5073723;28;20036;-83
2023/10/06 15:10:28;;;;;;;0.00;0.00;;;;;;;;;;5057037;28;20052;-82
2023/10/06 15:12:58;;;;;;;0.00;0.00;;;;;;;;;;5074902;28;20361;-84
2023/10/06 15:15:24;;;;;;;0.08;0.00;;;;;;;;;;5057770;28;20450;-82
2023/10/06 15:17:55;;;;;;;0.00;0.00;;;;;;;;;;5073735;28;20043;-83
2023/10/06 15:20:22;;;;;;;0.00;0.00;;;;;;;;;;5073402;28;20024;-83
2023/10/06 15:22:51;;;;;;;0.00;0.00;;;;;;;;;;5073689;28;20025;-83
2023/10/06 15:25:17;;;;;;;0.00;0.00;;;;;;;;;;5066698;28;20103;-83
2023/10/06 15:27:47;;;;;;;0.00;0.00;;;;;;;;;;5056637;28;20351;-82
2023/10/06 15:30:19;;;;;;;0.00;0.00;;;;;;;;;;5056744;28;20020;-84
2023/10/06 15:32:44;;;;;;;0.00;0.00;;;;;;;;;;5040394;28;20425;-82
2023/10/06 15:35:10;;;;;;;0.00;0.00;;;;;;;;;;5072776;28;20075;-82
2023/10/06 15:37:37;;;;;;;0.00;0.00;;;;;;;;;;5038385;28;20028;-82
2023/10/06 15:40:06;;;;;;;0.00;0.00;;;;;;;;;;5039970;28;20791;-84